Fairhaven, Washington
Current Conditions -  °F | °C
As of 6:53 PM on Saturday 22 Nov 2014 (Local Time) from KBLI Reporting Station
Broken Clouds Broken Clouds  
Wind Chill: 43°   Ceiling: 8000
Heat Index: 46°   Visibility: 10mi
Dew Point: 40°   Wind: 6mph
Humidity: 79%   Direction: 160°SSE
Pressure: 29.99"   Gusts: NA
Location:  48.7531°N, 122.502°W
Report Text: KBLI 230253Z 16005KT 10SM BKN080 08/04 A2999 RMK AO2 SLP163 T00780044 51026
Loading
Personal Weather Stations






























Interactive Weather Map New forecast layout! Learn more

10-Day Weather Forecast

Advertisements
Track Severe Weather on mobile